createdAt,value
2023-03-08T00:03:23.166Z,1.68
2023-03-08T00:08:24.844Z,1.34
2023-03-08T00:13:26.464Z,1.60
2023-03-08T00:18:28.201Z,1.65
2023-03-08T00:23:29.828Z,1.45
2023-03-08T00:28:31.979Z,1.72
2023-03-08T00:33:34.802Z,1.63
2023-03-08T00:38:36.755Z,1.55
2023-03-08T00:43:38.686Z,1.51
2023-03-08T00:48:41.072Z,1.43
2023-03-08T00:53:43.118Z,1.62
2023-03-08T00:58:44.764Z,1.26
2023-03-08T01:03:46.958Z,1.33
2023-03-08T01:08:48.688Z,1.48
2023-03-08T01:13:51.546Z,1.41
2023-03-08T01:18:54.018Z,1.09
2023-03-08T01:23:56.034Z,1.20
2023-03-08T01:28:58.560Z,1.10
2023-03-08T01:34:00.796Z,1.15
2023-03-08T01:39:02.484Z,1.44
2023-03-08T01:44:04.397Z,1.08
2023-03-08T01:49:27.258Z,1.26
2023-03-08T01:54:34.359Z,1.32
2023-03-08T01:59:36.515Z,1.25
2023-03-08T02:04:41.044Z,1.29
2023-03-08T02:09:47.929Z,1.01
2023-03-08T02:14:50.366Z,1.18
2023-03-08T02:19:57.601Z,1.08
2023-03-08T02:24:59.309Z,1.10
2023-03-08T02:30:01.703Z,0.92
2023-03-08T02:35:04.761Z,0.88
2023-03-08T02:40:08.747Z,1.11
2023-03-08T02:45:10.884Z,1.08
2023-03-08T02:50:13.056Z,1.15
2023-03-08T02:55:14.859Z,1.21
2023-03-08T03:00:17.811Z,1.35
2023-03-08T03:05:19.661Z,1.21
2023-03-08T03:10:21.362Z,1.22
2023-03-08T03:15:23.230Z,1.14
2023-03-08T03:20:28.712Z,1.17
2023-03-08T03:25:30.374Z,1.15
2023-03-08T03:30:32.161Z,0.94
2023-03-08T03:35:34.747Z,1.07
2023-03-08T03:40:36.502Z,1.00
2023-03-08T03:45:39.345Z,0.95
2023-03-08T03:50:41.057Z,1.05
2023-03-08T03:55:47.798Z,1.15
2023-03-08T04:00:49.555Z,1.03
2023-03-08T04:06:16.332Z,1.18
2023-03-08T04:11:22.484Z,1.13
2023-03-08T04:16:30.932Z,1.06
2023-03-08T04:21:35.896Z,1.13
2023-03-08T04:26:38.005Z,1.25
2023-03-08T04:31:39.768Z,1.23
2023-03-08T04:36:45.642Z,1.32
2023-03-08T04:41:48.746Z,1.23
2023-03-08T04:46:57.831Z,1.21
2023-03-08T04:52:10.213Z,1.41
2023-03-08T04:57:14.012Z,1.23
2023-03-08T05:02:16.506Z,1.37
2023-03-08T05:07:20.054Z,1.49
2023-03-08T05:12:23.767Z,1.55
2023-03-08T05:17:29.835Z,1.52
2023-03-08T05:22:31.622Z,1.68
2023-03-08T05:27:35.266Z,1.53
2023-03-08T05:32:38.196Z,1.52
2023-03-08T05:37:40.437Z,1.60
2023-03-08T05:42:42.124Z,1.47
2023-03-08T05:47:46.113Z,1.48
2023-03-08T05:52:47.831Z,1.58
2023-03-08T05:57:54.480Z,1.68
2023-03-08T06:02:59.808Z,1.62
2023-03-08T06:08:02.032Z,1.59
2023-03-08T06:13:04.493Z,1.74
2023-03-08T06:18:06.399Z,1.82
2023-03-08T06:23:08.614Z,1.91
2023-03-08T06:28:11.165Z,1.99
2023-03-08T06:33:20.631Z,1.98
2023-03-08T06:38:22.322Z,1.96
2023-03-08T06:43:24.047Z,2.35
2023-03-08T06:48:25.746Z,2.33
2023-03-08T06:53:28.062Z,2.22
2023-03-08T06:58:36.697Z,2.75
2023-03-08T07:03:38.552Z,2.80
2023-03-08T07:08:40.989Z,3.13
2023-03-08T07:13:43.225Z,2.73
2023-03-08T07:18:45.190Z,2.78
2023-03-08T07:23:46.803Z,2.83
2023-03-08T07:28:50.437Z,2.71
2023-03-08T07:33:52.125Z,2.82
2023-03-08T07:38:53.740Z,2.72
2023-03-08T07:43:55.332Z,2.97
2023-03-08T07:48:59.170Z,3.15
2023-03-08T07:54:00.788Z,3.89
2023-03-08T07:59:02.437Z,4.07
2023-03-08T08:04:04.596Z,3.83
2023-03-08T08:09:07.303Z,4.21
2023-03-08T08:14:09.437Z,4.27
2023-03-08T08:19:12.388Z,4.20
2023-03-08T08:24:14.682Z,5.21
2023-03-08T08:29:16.411Z,4.98
2023-03-08T08:34:18.216Z,4.97
2023-03-08T08:39:19.902Z,4.83
2023-03-08T08:44:21.611Z,4.63
2023-03-08T08:49:23.257Z,4.56
2023-03-08T08:54:24.899Z,4.42
2023-03-08T08:59:26.511Z,4.67
2023-03-08T09:04:28.287Z,4.11
2023-03-08T09:09:29.950Z,4.34
2023-03-08T09:14:31.565Z,5.02
2023-03-08T09:19:33.260Z,5.24
2023-03-08T09:24:34.897Z,5.12
2023-03-08T09:29:38.026Z,4.31
2023-03-08T09:34:39.727Z,4.86
2023-03-08T09:39:41.348Z,4.41
2023-03-08T09:45:16.938Z,4.22
2023-03-08T09:50:33.872Z,3.87
2023-03-08T09:55:41.636Z,4.45
2023-03-08T10:00:44.343Z,4.70
2023-03-08T10:06:11.384Z,4.75
2023-03-08T10:11:52.026Z,3.91
2023-03-08T10:16:58.112Z,3.56
2023-03-08T10:22:08.196Z,3.37
2023-03-08T10:27:28.632Z,3.35
2023-03-08T10:32:30.275Z,3.68
2023-03-08T10:37:33.728Z,4.03
2023-03-08T10:42:36.133Z,4.67
2023-03-08T10:47:38.858Z,4.07
2023-03-08T10:52:40.611Z,3.77
2023-03-08T10:57:49.442Z,3.25
2023-03-08T11:03:10.495Z,3.61
2023-03-08T11:08:21.200Z,3.37
2023-03-08T11:13:28.864Z,3.54
2023-03-08T11:18:39.318Z,3.62
2023-03-08T11:23:56.921Z,3.74
2023-03-08T11:29:14.759Z,3.60
2023-03-08T11:35:00.616Z,3.86
2023-03-08T11:40:19.690Z,4.42
2023-03-08T11:45:50.251Z,4.26
2023-03-08T11:51:15.519Z,4.64
2023-03-08T11:56:42.531Z,4.85
2023-03-08T12:01:56.707Z,5.09
2023-03-08T12:07:02.884Z,5.23
2023-03-08T12:12:20.639Z,5.29
2023-03-08T12:17:30.834Z,4.96
2023-03-08T12:22:41.752Z,5.04
2023-03-08T12:27:50.117Z,4.99
2023-03-08T12:32:56.402Z,4.88
2023-03-08T12:38:29.702Z,5.09
2023-03-08T12:43:34.542Z,5.09
2023-03-08T12:48:41.177Z,5.31
2023-03-08T12:53:57.143Z,5.51
2023-03-08T12:59:22.983Z,5.39
2023-03-08T13:04:41.761Z,5.54
2023-03-08T13:09:47.409Z,5.75
2023-03-08T13:15:18.717Z,5.84
2023-03-08T13:20:24.355Z,5.01
2023-03-08T13:25:35.289Z,5.30
2023-03-08T13:30:52.358Z,5.23
2023-03-08T13:36:21.535Z,4.67
2023-03-08T13:41:37.105Z,4.50
2023-03-08T13:46:42.640Z,4.31
2023-03-08T13:51:47.961Z,4.42
2023-03-08T13:56:54.097Z,4.29
2023-03-08T14:01:56.646Z,4.79
2023-03-08T14:07:00.196Z,5.47
2023-03-08T14:12:07.109Z,5.27
2023-03-08T14:17:19.441Z,5.23
2023-03-08T14:22:37.731Z,5.55
2023-03-08T14:27:42.897Z,5.71
2023-03-08T14:33:01.493Z,5.38
2023-03-08T14:38:04.019Z,4.83
2023-03-08T14:43:07.223Z,4.92
2023-03-08T14:48:23.954Z,4.31
2023-03-08T14:53:32.117Z,4.38
2023-03-08T14:58:38.073Z,4.27
2023-03-08T15:03:39.666Z,4.43
2023-03-08T15:08:41.480Z,4.52
2023-03-08T15:13:45.020Z,4.43
2023-03-08T15:18:46.688Z,4.46
2023-03-08T15:23:49.257Z,4.56
2023-03-08T15:28:50.936Z,4.59
2023-03-08T15:33:52.583Z,4.68
2023-03-08T15:38:54.231Z,4.66
2023-03-08T15:43:55.834Z,4.71
2023-03-08T15:48:57.690Z,4.74
2023-03-08T15:54:00.160Z,4.68
2023-03-08T15:59:02.234Z,4.55
2023-03-08T16:04:03.885Z,4.22
2023-03-08T16:09:05.516Z,4.10
2023-03-08T16:14:07.138Z,4.19
2023-03-08T16:19:08.745Z,4.14
2023-03-08T16:24:11.590Z,4.08
2023-03-08T16:29:13.209Z,4.18
2023-03-08T16:34:14.974Z,4.08
2023-03-08T16:39:16.643Z,4.02
2023-03-08T16:44:27.622Z,4.17
2023-03-08T16:49:29.295Z,3.99
2023-03-08T16:54:31.162Z,3.98
2023-03-08T16:59:32.870Z,4.03
2023-03-08T17:04:34.502Z,4.06
2023-03-08T17:09:37.096Z,4.23
2023-03-08T17:14:38.698Z,4.10
2023-03-08T17:19:41.137Z,3.81
2023-03-08T17:24:42.974Z,3.84
2023-03-08T17:29:44.655Z,4.06
2023-03-08T17:34:46.262Z,3.96
2023-03-08T17:39:48.064Z,3.78
2023-03-08T17:44:49.684Z,3.99
2023-03-08T17:49:51.293Z,4.16
2023-03-08T17:54:54.464Z,4.05
2023-03-08T17:59:56.103Z,3.90
2023-03-08T18:04:57.714Z,4.06
2023-03-08T18:09:59.479Z,4.07
2023-03-08T18:15:01.937Z,4.00
2023-03-08T18:20:05.587Z,3.81
2023-03-08T18:25:08.069Z,3.81
2023-03-08T18:30:12.260Z,3.86
2023-03-08T18:35:13.909Z,3.62
2023-03-08T18:40:15.606Z,3.74
2023-03-08T18:45:18.363Z,3.85
2023-03-08T18:50:20.451Z,3.87
2023-03-08T18:55:22.121Z,3.77
2023-03-08T19:00:24.083Z,3.81
2023-03-08T19:05:25.774Z,3.80
2023-03-08T19:10:27.434Z,3.70
2023-03-08T19:15:29.062Z,3.51
2023-03-08T19:20:30.784Z,3.75
2023-03-08T19:25:34.192Z,3.95
2023-03-08T19:30:35.840Z,3.82
2023-03-08T19:35:37.520Z,3.87
2023-03-08T19:40:43.324Z,3.78
2023-03-08T19:45:49.025Z,3.66
2023-03-08T19:50:50.664Z,3.73
2023-03-08T19:55:55.156Z,3.51
2023-03-08T20:01:05.378Z,3.85
2023-03-08T20:06:07.370Z,3.99
2023-03-08T20:11:08.987Z,3.98
2023-03-08T20:16:10.703Z,4.01
2023-03-08T20:21:12.308Z,3.99
2023-03-08T20:26:14.136Z,3.90
2023-03-08T20:31:16.520Z,3.61
2023-03-08T20:36:18.264Z,3.88
2023-03-08T20:41:21.386Z,3.83
2023-03-08T20:46:32.873Z,3.82
2023-03-08T20:51:36.376Z,3.83
2023-03-08T20:56:37.998Z,3.77
2023-03-08T21:01:42.004Z,3.83
2023-03-08T21:06:43.729Z,3.67
2023-03-08T21:11:45.589Z,3.84
2023-03-08T21:16:47.837Z,3.64
2023-03-08T21:21:51.139Z,3.63
2023-03-08T21:26:52.740Z,3.63
2023-03-08T21:31:54.792Z,3.79
2023-03-08T21:36:56.698Z,3.88
2023-03-08T21:41:58.825Z,3.75
2023-03-08T21:47:00.499Z,3.83
2023-03-08T21:52:02.750Z,3.72
2023-03-08T21:57:04.354Z,3.61
2023-03-08T22:02:06.045Z,3.74
2023-03-08T22:07:07.732Z,3.78
2023-03-08T22:12:09.744Z,3.82
2023-03-08T22:17:11.406Z,3.88
2023-03-08T22:22:12.996Z,3.85
2023-03-08T22:27:14.700Z,3.88
2023-03-08T22:32:16.403Z,3.82
2023-03-08T22:37:18.084Z,3.74
2023-03-08T22:42:19.828Z,3.69
2023-03-08T22:47:21.471Z,3.76
2023-03-08T22:52:23.447Z,3.56
2023-03-08T22:57:25.140Z,3.87
2023-03-08T23:02:28.504Z,3.90
2023-03-08T23:07:30.617Z,3.74
2023-03-08T23:12:32.237Z,3.74
2023-03-08T23:17:34.085Z,3.66
2023-03-08T23:22:35.687Z,3.71
2023-03-08T23:27:37.327Z,3.80
2023-03-08T23:32:39.550Z,3.72
2023-03-08T23:37:41.441Z,3.91
2023-03-08T23:42:43.111Z,3.93
2023-03-08T23:47:44.721Z,3.98
2023-03-08T23:52:46.325Z,3.90
2023-03-08T23:57:47.997Z,4.01
